Archival Weather

Václav Havel Intl Apt

Prague, Czechia (LKPR)

Report from: Friday, May 26, 2023 7:00 AM CEST
Current time: Sunday, July 14, 2024 11:43 AM CEST

Current weather – Weather history – Daily summaries
Weather forecast

Temperature11.0°C (51.8°F)
Dew point8.0°C (46.4°F)
Winds 6 kts (3.1 m/s, 6.9 mph) North-Northwest (340°)
Clouds Sky clear
Altimeter30.24 in.Hg (1024 mB)
Relative humidity82 %
Density altitude-687 ft. (-209 m)
Remarks Ceiling and visibility OK
No significant changes expected in the next two hours
Flight conditions Visual Meteorological Conditions
Raw dataLKPR 260500Z 34006KT CAVOK 11/08 Q1024 NOSIG
An error has occurred. This application may no longer respond until reloaded. Reload 🗙